LRBS Airport Information

Runway Information
Runway 07 Length 10499 ft width 148 ft
Elevation 297 ft Threshold 787 ft Heading 74
Runway 25 Length 10499 ft Width 148 ft
Elevation 292 ft Threshold 2609 ft Heading 254
Airport Frequencies
Type APP Name APP Frequency 118.25 MHZ
Type GCA Name PRECISION Frequency 125.2 MHZ
Type GND Name GND Frequency 129.95 MHZ
Type TWR Name TWR Frequency 120.8 MHZ
Airport Navaids
Type NDB Name Baneasa Southeast Frequency 256 KHZ
Type NDB Name Baneasa Southwest Frequency 521 KHZ
Airport Weather Information & NOTAM
ADDS - METARS form results

(1044 UTC 23 March 2019)
Data provider http://aviationweather.gov/metar/data/
 
METAR text: LRBS 231030Z VRB03KT CAVOK 14/01 Q1024 NOSIG
Conditions at: LRBS (BUCHAREST/BANEAS, RO) observed 1030 UTC 23 March 2019
Temperature: 14.0°C (57°F)
Dewpoint: 1.0°C (34°F) [RH = 41%]
Pressure (altimeter): 30.24 inches Hg (1024.0 mb)
Winds: variable direction winds at 3 MPH (3 knots; 1.5 m/s)
Visibility: 6 or more miles (10+ km)
Ceiling: ceiling and visibility are OK
Clouds: unknown
Weather: no significant weather observed at this time

METAR text: LRBS 231000Z 08005KT 350V140 CAVOK 14/02 Q1025 NOSIG
Conditions at: LRBS (BUCHAREST/BANEAS, RO) observed 1000 UTC 23 March 2019
Temperature: 14.0°C (57°F)
Dewpoint: 2.0°C (36°F) [RH = 44%]
Pressure (altimeter): 30.27 inches Hg (1025.0 mb)
Winds: from the E (80 degrees) at 6 MPH (5 knots; 2.6 m/s)
Visibility: 6 or more miles (10+ km)
Ceiling: ceiling and visibility are OK
Clouds: unknown
Weather: no significant weather observed at this time

Forecast for: LRBS (BUCHAREST/BANEAS, RO)
Text: TAF LRBS 230500Z 2306/2406 VRB04KT CAVOK
Forecast period: 0600 to 1600 UTC 23 March 2019
Forecast type: FROM: standard forecast or significant change
Winds: variable direction winds at 5 MPH (4 knots; 2.1 m/s)
Visibility: 6 or more miles 10+ km)
Ceiling: unknown
Clouds: missing
Weather: NSW  (no significant weather)
Text: PROB40
Forecast period: 1200 to 1600 UTC 23 March 2019
Forecast type: TEMPORARY: The following changes expected for less than half the time period
Visibility: 3 miles (5 km)
Ceiling: at least 12,000 feet AGL
Clouds: scattered clouds at 3500 feet AGL
Weather: -SHRA  (light rain showers)
Text: TEMPO 2312/2316 5000 -SHRA SCT035CB
Forecast period: 1600 UTC 23 March 2019 to 0000 UTC 24 March 2019
Forecast type: BECOMING: Conditions expected to become as follows by 1800 UTC 23 March 2019
Winds: from the E (100 degrees) at 12 MPH (10 knots; 5.1 m/s)
Visibility: 6 or more miles 10+ km)
Ceiling: unknown
Clouds: missing
Weather: NSW  (no significant weather)
Text: BECMG 2316/2318 10010KT
Forecast period: 0000 to 0600 UTC 24 March 2019
Forecast type: BECOMING: Conditions expected to become as follows by 0200 UTC 24 March 2019
Winds: variable direction winds at 5 MPH (4 knots; 2.1 m/s)
Visibility: 6 or more miles 10+ km)
Ceiling: unknown
Clouds: missing
Weather: NSW  (no significant weather)